createdAt,value
2023-03-08T00:02:07.190Z,17.63
2023-03-08T00:04:34.821Z,18.03
2023-03-08T00:07:01.954Z,16.37
2023-03-08T00:09:29.202Z,21.13
2023-03-08T00:11:56.349Z,17.07
2023-03-08T00:14:23.438Z,17.10
2023-03-08T00:16:50.623Z,18.27
2023-03-08T00:19:17.788Z,17.83
2023-03-08T00:21:44.885Z,16.60
2023-03-08T00:24:16.631Z,15.33
2023-03-08T00:26:44.145Z,18.03
2023-03-08T00:29:11.328Z,18.83
2023-03-08T00:31:38.564Z,18.40
2023-03-08T00:34:05.936Z,16.80
2023-03-08T00:36:33.058Z,15.60
2023-03-08T00:39:00.199Z,15.90
2023-03-08T00:41:27.322Z,17.40
2023-03-08T00:43:54.499Z,17.40
2023-03-08T00:46:21.823Z,17.30
2023-03-08T00:48:49.076Z,18.80
2023-03-08T00:51:17.044Z,17.20
2023-03-08T00:53:44.302Z,20.63
2023-03-08T00:56:11.667Z,16.63
2023-03-08T00:58:39.642Z,15.67
2023-03-08T01:01:07.878Z,19.67
2023-03-08T01:03:35.192Z,17.00
2023-03-08T01:06:06.707Z,15.60
2023-03-08T01:08:33.845Z,17.77
2023-03-08T01:11:01.145Z,18.67
2023-03-08T01:13:32.854Z,18.20
2023-03-08T01:16:00.468Z,16.23
2023-03-08T01:18:27.853Z,16.73
2023-03-08T01:20:59.628Z,17.13
2023-03-08T01:23:26.750Z,15.93
2023-03-08T01:26:07.720Z,16.23
2023-03-08T01:28:35.421Z,17.60
2023-03-08T01:31:03.853Z,16.27
2023-03-08T01:33:30.990Z,16.67
2023-03-08T01:35:58.200Z,16.17
2023-03-08T01:38:25.344Z,15.07
2023-03-08T01:40:56.714Z,16.50
2023-03-08T01:43:25.078Z,16.20
2023-03-08T01:46:01.381Z,17.33
2023-03-08T01:48:32.297Z,16.03
2023-03-08T01:51:00.533Z,17.27
2023-03-08T01:53:27.672Z,16.17
2023-03-08T01:55:55.214Z,15.43
2023-03-08T01:58:23.097Z,16.67
2023-03-08T02:00:50.207Z,15.57
2023-03-08T02:03:17.417Z,17.47
2023-03-08T02:05:44.666Z,18.47
2023-03-08T02:08:11.873Z,16.83
2023-03-08T02:10:39.100Z,16.27
2023-03-08T02:13:07.139Z,17.43
2023-03-08T02:15:34.291Z,17.17
2023-03-08T02:18:01.441Z,17.53
2023-03-08T02:20:32.751Z,19.67
2023-03-08T02:23:09.117Z,15.80
2023-03-08T02:25:36.268Z,16.53
2023-03-08T02:28:04.411Z,17.60
2023-03-08T02:30:33.014Z,18.40
2023-03-08T02:33:00.129Z,16.33
2023-03-08T02:35:27.380Z,19.10
2023-03-08T02:37:54.502Z,18.13
2023-03-08T02:40:21.745Z,18.50
2023-03-08T02:42:48.903Z,18.00
2023-03-08T02:45:16.127Z,16.90
2023-03-08T02:47:43.267Z,16.87
2023-03-08T02:50:10.704Z,19.67
2023-03-08T02:52:37.804Z,16.90
2023-03-08T02:55:05.137Z,17.83
2023-03-08T02:57:32.249Z,17.30
2023-03-08T02:59:59.384Z,18.47
2023-03-08T03:02:26.578Z,19.87
2023-03-08T03:04:53.717Z,18.90
2023-03-08T03:07:20.845Z,17.23
2023-03-08T03:09:48.040Z,17.50
2023-03-08T03:12:15.166Z,16.47
2023-03-08T03:14:42.338Z,16.10
2023-03-08T03:17:09.431Z,17.53
2023-03-08T03:19:37.904Z,20.57
2023-03-08T03:22:05.120Z,17.30
2023-03-08T03:24:32.217Z,17.97
2023-03-08T03:26:59.384Z,20.30
2023-03-08T03:29:26.552Z,19.47
2023-03-08T03:31:53.643Z,18.57
2023-03-08T03:34:20.807Z,19.77
2023-03-08T03:36:47.928Z,17.30
2023-03-08T03:39:15.071Z,16.47
2023-03-08T03:41:42.205Z,18.47
2023-03-08T03:44:09.301Z,18.17
2023-03-08T03:46:36.469Z,15.00
2023-03-08T03:49:03.645Z,17.50
2023-03-08T03:51:30.801Z,19.33
2023-03-08T03:53:58.680Z,19.77
2023-03-08T03:56:27.028Z,19.30
2023-03-08T03:58:54.498Z,15.93
2023-03-08T04:01:24.591Z,17.63
2023-03-08T04:03:52.265Z,20.73
2023-03-08T04:06:21.361Z,20.40
2023-03-08T04:08:48.585Z,19.77
2023-03-08T04:11:17.283Z,21.47
2023-03-08T04:13:44.781Z,17.73
2023-03-08T04:16:13.299Z,18.60
2023-03-08T04:18:40.581Z,18.13
2023-03-08T04:21:08.066Z,20.17
2023-03-08T04:23:35.309Z,21.33
2023-03-08T04:26:02.556Z,22.10
2023-03-08T04:28:29.933Z,21.50
2023-03-08T04:30:57.295Z,17.43
2023-03-08T04:33:24.798Z,18.03
2023-03-08T04:35:52.314Z,21.27
2023-03-08T04:38:19.584Z,20.30
2023-03-08T04:41:02.081Z,18.43
2023-03-08T04:43:29.605Z,19.20
2023-03-08T04:45:56.715Z,20.13
2023-03-08T04:48:26.355Z,21.70
2023-03-08T04:50:57.687Z,18.97
2023-03-08T04:53:25.313Z,17.40
2023-03-08T04:55:52.863Z,21.60
2023-03-08T04:58:20.169Z,20.33
2023-03-08T05:00:47.310Z,21.67
2023-03-08T05:03:14.715Z,21.80
2023-03-08T05:05:48.657Z,21.30
2023-03-08T05:08:15.946Z,17.83
2023-03-08T05:11:00.952Z,21.77
2023-03-08T05:13:29.214Z,19.33
2023-03-08T05:15:56.377Z,19.97
2023-03-08T05:18:23.533Z,20.90
2023-03-08T05:21:04.576Z,23.37
2023-03-08T05:23:31.975Z,19.73
2023-03-08T05:26:00.042Z,21.00
2023-03-08T05:28:28.991Z,24.00
2023-03-08T05:31:03.087Z,18.63
2023-03-08T05:33:30.605Z,23.97
2023-03-08T05:35:58.028Z,20.07
2023-03-08T05:38:25.724Z,18.13
2023-03-08T05:40:53.220Z,23.33
2023-03-08T05:43:20.402Z,21.63
2023-03-08T05:45:57.685Z,20.73
2023-03-08T05:48:25.106Z,18.83
2023-03-08T05:50:52.573Z,20.70
2023-03-08T05:53:19.791Z,19.40
2023-03-08T05:55:46.957Z,19.73
2023-03-08T05:58:14.194Z,20.23
2023-03-08T06:00:41.347Z,21.60
2023-03-08T06:03:08.528Z,18.77
2023-03-08T06:05:35.813Z,21.83
2023-03-08T06:08:02.936Z,23.77
2023-03-08T06:10:30.262Z,18.20
2023-03-08T06:12:57.372Z,20.27
2023-03-08T06:15:24.503Z,19.93
2023-03-08T06:17:54.790Z,21.80
2023-03-08T06:20:21.994Z,18.63
2023-03-08T06:22:49.216Z,23.03
2023-03-08T06:25:16.412Z,24.00
2023-03-08T06:27:43.522Z,22.60
2023-03-08T06:30:11.076Z,20.40
2023-03-08T06:32:38.359Z,21.37
2023-03-08T06:35:05.938Z,19.43
2023-03-08T06:37:34.319Z,21.90
2023-03-08T06:40:01.943Z,22.83
2023-03-08T06:42:40.620Z,20.17
2023-03-08T06:45:09.348Z,22.10
2023-03-08T06:47:36.486Z,20.13
2023-03-08T06:50:03.707Z,40.00
2023-03-08T06:52:37.501Z,24.13
2023-03-08T06:55:05.307Z,21.07
2023-03-08T06:57:32.419Z,20.60
2023-03-08T06:59:59.540Z,21.70
2023-03-08T07:02:26.700Z,20.17
2023-03-08T07:04:53.839Z,22.93
2023-03-08T07:07:21.008Z,19.57
2023-03-08T07:09:48.136Z,24.10
2023-03-08T07:12:15.438Z,20.30
2023-03-08T07:14:42.561Z,21.63
2023-03-08T07:17:09.705Z,22.67
2023-03-08T07:19:36.873Z,22.83
2023-03-08T07:22:03.995Z,21.97
2023-03-08T07:24:31.117Z,22.10
2023-03-08T07:26:58.216Z,21.17
2023-03-08T07:29:25.291Z,23.53
2023-03-08T07:31:52.452Z,21.80
2023-03-08T07:34:19.584Z,22.80
2023-03-08T07:36:46.704Z,24.57
2023-03-08T07:39:13.875Z,26.07
2023-03-08T07:41:40.992Z,24.03
2023-03-08T07:44:08.172Z,24.90
2023-03-08T07:46:35.433Z,21.90
2023-03-08T07:49:02.655Z,22.40
2023-03-08T07:51:29.870Z,25.00
2023-03-08T07:53:56.959Z,26.67
2023-03-08T07:56:24.117Z,22.30
2023-03-08T07:58:51.252Z,25.97
2023-03-08T08:01:18.342Z,24.60
2023-03-08T08:03:45.633Z,25.43
2023-03-08T08:06:12.829Z,24.10
2023-03-08T08:08:40.704Z,28.63
2023-03-08T08:11:11.607Z,22.30
2023-03-08T08:13:38.791Z,27.87
2023-03-08T08:16:07.173Z,25.30
2023-03-08T08:18:35.060Z,24.97
2023-03-08T08:21:06.366Z,24.50
2023-03-08T08:23:33.871Z,28.23
2023-03-08T08:26:01.068Z,26.27
2023-03-08T08:28:28.342Z,24.60
2023-03-08T08:31:21.903Z,29.13
2023-03-08T08:33:49.418Z,29.03
2023-03-08T08:36:17.964Z,28.07
2023-03-08T08:38:46.205Z,28.67
2023-03-08T08:41:15.389Z,29.63
2023-03-08T08:43:43.051Z,28.73
2023-03-08T08:46:10.690Z,27.97
2023-03-08T08:48:38.610Z,34.07
2023-03-08T08:51:06.641Z,35.00
2023-03-08T08:53:34.112Z,31.77
2023-03-08T08:56:23.737Z,33.63
2023-03-08T08:58:52.668Z,35.57
2023-03-08T09:01:21.108Z,37.53
2023-03-08T09:03:48.371Z,36.47
2023-03-08T09:06:16.249Z,34.57
2023-03-08T09:08:43.826Z,34.23
2023-03-08T09:11:11.268Z,41.20
2023-03-08T09:13:41.685Z,36.87
2023-03-08T09:16:18.082Z,34.57
2023-03-08T09:18:45.396Z,36.57
2023-03-08T09:21:12.559Z,35.77
2023-03-08T09:23:39.667Z,36.80
2023-03-08T09:26:06.913Z,37.27
2023-03-08T09:28:34.242Z,29.33
2023-03-08T09:31:03.154Z,33.30
2023-03-08T09:33:30.275Z,28.83
2023-03-08T09:36:01.151Z,29.63
2023-03-08T09:38:28.322Z,32.73
2023-03-08T09:41:07.462Z,32.87
2023-03-08T09:43:41.890Z,36.23
2023-03-08T09:46:12.900Z,37.90
2023-03-08T09:48:42.796Z,37.63
2023-03-08T09:51:11.664Z,34.00
2023-03-08T09:53:44.213Z,39.90
2023-03-08T09:56:28.431Z,38.33
2023-03-08T09:59:07.769Z,41.87
2023-03-08T10:01:53.294Z,32.53
2023-03-08T10:04:47.037Z,36.00
2023-03-08T10:07:15.459Z,36.43
2023-03-08T10:10:01.648Z,37.83
2023-03-08T10:12:33.653Z,46.73
2023-03-08T10:15:06.337Z,36.50
2023-03-08T10:17:50.307Z,37.37
2023-03-08T10:20:21.024Z,35.43
2023-03-08T10:22:52.298Z,37.37
2023-03-08T10:25:19.580Z,40.90
2023-03-08T10:27:48.423Z,41.10
2023-03-08T10:30:19.441Z,36.37
2023-03-08T10:32:48.031Z,32.23
2023-03-08T10:35:15.912Z,35.13
2023-03-08T10:37:43.057Z,37.17
2023-03-08T10:40:13.793Z,36.13
2023-03-08T10:42:43.618Z,38.53
2023-03-08T10:45:22.237Z,41.43
2023-03-08T10:47:59.820Z,40.67
2023-03-08T10:50:28.752Z,33.93
2023-03-08T10:52:55.947Z,38.97
2023-03-08T10:55:29.474Z,37.03
2023-03-08T10:57:58.012Z,37.53
2023-03-08T11:00:36.275Z,36.40
2023-03-08T11:03:15.067Z,46.03
2023-03-08T11:05:51.944Z,41.73
2023-03-08T11:08:20.742Z,51.80
2023-03-08T11:10:48.003Z,43.13
2023-03-08T11:13:26.067Z,42.87
2023-03-08T11:16:01.195Z,41.03
2023-03-08T11:18:35.482Z,36.87
2023-03-08T11:21:07.642Z,40.00
2023-03-08T11:23:40.324Z,37.80
2023-03-08T11:26:25.265Z,45.23
2023-03-08T11:29:12.856Z,40.37
2023-03-08T11:32:12.686Z,62.13
2023-03-08T11:34:39.887Z,38.77
2023-03-08T11:37:09.888Z,39.67
2023-03-08T11:39:47.755Z,38.50
2023-03-08T11:42:22.862Z,35.97
2023-03-08T11:44:55.005Z,37.57
2023-03-08T11:47:34.088Z,41.87
2023-03-08T11:50:19.824Z,39.00
2023-03-08T11:53:07.246Z,44.97
2023-03-08T11:55:43.559Z,38.27
2023-03-08T11:58:10.660Z,35.97
2023-03-08T12:00:39.668Z,42.13
2023-03-08T12:03:17.072Z,38.63
2023-03-08T12:05:52.464Z,37.13
2023-03-08T12:08:23.281Z,37.20
2023-03-08T12:10:56.800Z,40.13
2023-03-08T12:13:29.729Z,40.13
2023-03-08T12:16:03.017Z,37.93
2023-03-08T12:18:50.437Z,45.63
2023-03-08T12:21:28.584Z,40.07
2023-03-08T12:24:16.004Z,37.67
2023-03-08T12:26:52.362Z,40.20
2023-03-08T12:29:25.148Z,38.20
2023-03-08T12:31:52.678Z,46.30
2023-03-08T12:34:27.891Z,39.40
2023-03-08T12:36:55.384Z,51.23
2023-03-08T12:39:28.104Z,60.53
2023-03-08T12:41:59.173Z,49.83
2023-03-08T12:44:27.549Z,51.37
2023-03-08T12:47:03.333Z,50.93
2023-03-08T12:49:36.051Z,48.43
2023-03-08T12:52:26.303Z,46.87
2023-03-08T12:54:59.193Z,50.03
2023-03-08T12:57:29.477Z,53.40
2023-03-08T13:00:01.616Z,61.70
2023-03-08T13:02:33.085Z,58.80
2023-03-08T13:05:19.506Z,63.97
2023-03-08T13:07:58.054Z,96.90
2023-03-08T13:10:31.479Z,94.30
2023-03-08T13:13:04.897Z,57.10
2023-03-08T13:15:32.051Z,130.77
2023-03-08T13:18:03.821Z,105.83
2023-03-08T13:20:41.834Z,181.40
2023-03-08T13:23:18.960Z,79.70
2023-03-08T13:25:52.488Z,75.57
2023-03-08T13:28:20.961Z,78.23
2023-03-08T13:30:49.644Z,64.70
2023-03-08T13:33:20.355Z,79.67
2023-03-08T13:35:58.028Z,67.43
2023-03-08T13:38:26.194Z,60.83
2023-03-08T13:40:53.977Z,56.80
2023-03-08T13:43:25.305Z,52.87
2023-03-08T13:45:53.945Z,60.07
2023-03-08T13:48:22.233Z,60.37
2023-03-08T13:50:50.972Z,53.47
2023-03-08T13:53:22.825Z,58.33
2023-03-08T13:55:52.110Z,43.77
2023-03-08T13:58:19.245Z,38.33
2023-03-08T14:00:46.539Z,40.37
2023-03-08T14:03:20.494Z,38.93
2023-03-08T14:05:48.301Z,38.23
2023-03-08T14:08:24.916Z,38.83
2023-03-08T14:10:52.054Z,41.03
2023-03-08T14:13:21.362Z,33.70
2023-03-08T14:15:53.134Z,35.77
2023-03-08T14:18:22.461Z,36.80
2023-03-08T14:21:01.863Z,32.63
2023-03-08T14:23:29.260Z,40.33
2023-03-08T14:25:59.891Z,62.73
2023-03-08T14:28:40.795Z,59.03
2023-03-08T14:31:27.163Z,59.10
2023-03-08T14:33:58.439Z,54.60
2023-03-08T14:36:25.796Z,54.27
2023-03-08T14:38:53.027Z,48.63
2023-03-08T14:41:29.952Z,47.63
2023-03-08T14:43:57.319Z,49.10
2023-03-08T14:46:24.638Z,49.50
2023-03-08T14:49:02.842Z,48.70
2023-03-08T14:51:41.455Z,49.07
2023-03-08T14:54:29.275Z,49.63
2023-03-08T14:56:56.699Z,53.70
2023-03-08T14:59:27.808Z,58.13
2023-03-08T15:01:55.605Z,54.77
2023-03-08T15:04:24.790Z,48.43
2023-03-08T15:06:52.954Z,47.27
2023-03-08T15:09:21.850Z,50.63
2023-03-08T15:11:51.680Z,42.53
2023-03-08T15:14:18.798Z,47.10
2023-03-08T15:16:45.917Z,46.30
2023-03-08T15:19:13.951Z,45.33
2023-03-08T15:21:41.245Z,45.30
2023-03-08T15:24:11.406Z,38.03
2023-03-08T15:26:38.523Z,40.90
2023-03-08T15:29:06.563Z,40.90
2023-03-08T15:31:33.713Z,39.60
2023-03-08T15:34:01.566Z,43.00
2023-03-08T15:36:32.540Z,45.23
2023-03-08T15:39:01.299Z,40.97
2023-03-08T15:41:28.442Z,41.67
2023-03-08T15:43:55.603Z,38.53
2023-03-08T15:46:22.916Z,44.50
2023-03-08T15:48:51.199Z,43.70
2023-03-08T15:51:19.443Z,44.20
2023-03-08T15:53:46.883Z,47.63
2023-03-08T15:56:14.112Z,48.93
2023-03-08T15:58:41.306Z,45.73
2023-03-08T16:01:08.974Z,59.67
2023-03-08T16:03:36.199Z,95.67
2023-03-08T16:06:03.461Z,63.67
2023-03-08T16:08:30.766Z,62.53
2023-03-08T16:11:03.841Z,40.53
2023-03-08T16:13:31.541Z,30.07
2023-03-08T16:16:02.331Z,20.90
2023-03-08T16:18:30.319Z,22.67
2023-03-08T16:20:57.986Z,21.07
2023-03-08T16:23:25.612Z,23.70
2023-03-08T16:26:14.587Z,21.70
2023-03-08T16:28:43.623Z,19.10
2023-03-08T16:31:10.797Z,19.10
2023-03-08T16:33:37.993Z,18.90
2023-03-08T16:36:05.261Z,19.13
2023-03-08T16:38:32.757Z,17.40
2023-03-08T16:41:11.633Z,16.87
2023-03-08T16:43:46.290Z,13.87
2023-03-08T16:46:15.321Z,16.23
2023-03-08T16:48:42.494Z,17.50
2023-03-08T16:51:13.895Z,17.80
2023-03-08T16:53:41.061Z,16.13
2023-03-08T16:56:08.384Z,15.00
2023-03-08T16:58:35.564Z,16.13
2023-03-08T17:01:02.724Z,17.43
2023-03-08T17:03:29.885Z,16.63
2023-03-08T17:05:56.975Z,14.33
2023-03-08T17:08:24.087Z,14.30
2023-03-08T17:10:51.251Z,15.17
2023-03-08T17:13:18.405Z,15.77
2023-03-08T17:15:47.089Z,14.27
2023-03-08T17:18:14.690Z,16.77
2023-03-08T17:20:42.587Z,16.83
2023-03-08T17:23:10.703Z,14.57
2023-03-08T17:25:40.668Z,13.37
2023-03-08T17:28:08.572Z,13.43
2023-03-08T17:30:36.253Z,15.33
2023-03-08T17:33:03.391Z,13.70
2023-03-08T17:35:30.553Z,13.17
2023-03-08T17:37:57.964Z,14.47
2023-03-08T17:40:25.094Z,12.93
2023-03-08T17:42:52.326Z,13.27
2023-03-08T17:45:19.850Z,12.87
2023-03-08T17:47:47.045Z,13.87
2023-03-08T17:50:14.201Z,16.80
2023-03-08T17:52:41.717Z,11.97
2023-03-08T17:55:09.161Z,11.80
2023-03-08T17:57:36.939Z,15.33
2023-03-08T18:00:05.569Z,12.00
2023-03-08T18:02:33.268Z,12.67
2023-03-08T18:05:00.494Z,12.00
2023-03-08T18:07:29.058Z,12.20
2023-03-08T18:09:56.270Z,11.17
2023-03-08T18:12:23.743Z,9.20
2023-03-08T18:14:52.722Z,6.37
2023-03-08T18:17:20.846Z,6.87
2023-03-08T18:19:48.282Z,9.30
2023-03-08T18:22:15.733Z,4.63
2023-03-08T18:24:42.932Z,5.20
2023-03-08T18:27:10.053Z,5.17
2023-03-08T18:29:37.400Z,9.30
2023-03-08T18:32:05.069Z,6.07
2023-03-08T18:34:32.180Z,5.43
2023-03-08T18:36:59.574Z,7.67
2023-03-08T18:39:27.219Z,6.20
2023-03-08T18:41:56.839Z,5.27
2023-03-08T18:44:25.131Z,3.80
2023-03-08T18:46:52.319Z,4.97
2023-03-08T18:49:19.528Z,4.93
2023-03-08T18:51:46.902Z,4.47
2023-03-08T18:54:17.216Z,5.93
2023-03-08T18:56:44.966Z,8.07
2023-03-08T18:59:13.208Z,5.20
2023-03-08T19:01:40.816Z,7.70
2023-03-08T19:04:08.430Z,5.00
2023-03-08T19:06:36.157Z,6.47
2023-03-08T19:09:10.375Z,5.00
2023-03-08T19:11:37.827Z,4.47
2023-03-08T19:14:04.981Z,6.63
2023-03-08T19:16:33.632Z,3.77
2023-03-08T19:19:02.331Z,5.67
2023-03-08T19:21:31.087Z,6.50
2023-03-08T19:23:58.856Z,6.83
2023-03-08T19:26:36.338Z,5.80
2023-03-08T19:29:06.663Z,9.03
2023-03-08T19:31:35.454Z,16.10
2023-03-08T19:34:04.735Z,7.80
2023-03-08T19:36:32.876Z,7.80
2023-03-08T19:39:00.349Z,6.47
2023-03-08T19:41:27.786Z,8.23
2023-03-08T19:43:54.897Z,7.73
2023-03-08T19:46:22.327Z,11.40
2023-03-08T19:48:49.498Z,9.73
2023-03-08T19:51:17.605Z,6.17
2023-03-08T19:53:44.816Z,8.07
2023-03-08T19:56:19.458Z,7.30
2023-03-08T19:58:47.322Z,8.07
2023-03-08T20:01:17.154Z,8.00
2023-03-08T20:03:46.052Z,6.53
2023-03-08T20:06:14.270Z,4.90
2023-03-08T20:08:41.407Z,7.17
2023-03-08T20:11:08.546Z,6.83
2023-03-08T20:13:35.648Z,4.97
2023-03-08T20:16:02.764Z,5.80
2023-03-08T20:18:29.936Z,4.87
2023-03-08T20:20:58.923Z,7.73
2023-03-08T20:23:26.594Z,5.47
2023-03-08T20:25:53.716Z,6.50
2023-03-08T20:28:21.082Z,6.47
2023-03-08T20:30:48.554Z,4.37
2023-03-08T20:33:15.969Z,4.87
2023-03-08T20:35:43.405Z,9.80
2023-03-08T20:38:10.570Z,5.07
2023-03-08T20:40:39.626Z,3.87
2023-03-08T20:43:10.914Z,6.63
2023-03-08T20:45:40.270Z,5.00
2023-03-08T20:48:07.774Z,3.63
2023-03-08T20:50:34.887Z,2.73
2023-03-08T20:53:02.059Z,2.73
2023-03-08T20:55:29.152Z,3.13
2023-03-08T20:57:56.265Z,4.73
2023-03-08T21:00:25.406Z,3.17
2023-03-08T21:02:52.654Z,3.30
2023-03-08T21:05:19.779Z,3.50
2023-03-08T21:07:46.897Z,3.53
2023-03-08T21:10:14.019Z,2.70
2023-03-08T21:12:41.170Z,3.43
2023-03-08T21:15:08.557Z,1.37
2023-03-08T21:17:37.950Z,3.20
2023-03-08T21:20:05.778Z,4.50
2023-03-08T21:22:32.990Z,2.97
2023-03-08T21:25:00.143Z,2.53
2023-03-08T21:27:27.267Z,2.13
2023-03-08T21:29:57.323Z,2.53
2023-03-08T21:32:26.363Z,3.30
2023-03-08T21:34:54.960Z,3.57
2023-03-08T21:37:22.065Z,1.17
2023-03-08T21:39:49.183Z,2.47
2023-03-08T21:42:16.296Z,1.80
2023-03-08T21:44:43.454Z,1.83
2023-03-08T21:47:10.626Z,1.73
2023-03-08T21:49:37.765Z,2.47
2023-03-08T21:52:05.416Z,1.17
2023-03-08T21:54:32.844Z,1.67
2023-03-08T21:57:00.223Z,1.93
2023-03-08T21:59:28.813Z,1.53
2023-03-08T22:01:58.643Z,2.60
2023-03-08T22:04:26.215Z,2.90
2023-03-08T22:06:55.497Z,1.13
2023-03-08T22:09:23.078Z,2.00
2023-03-08T22:11:51.575Z,1.00
2023-03-08T22:14:18.820Z,2.60
2023-03-08T22:16:45.938Z,3.20
2023-03-08T22:19:13.032Z,2.67
2023-03-08T22:21:40.165Z,4.00
2023-03-08T22:24:07.543Z,6.37
2023-03-08T22:26:34.801Z,6.33
2023-03-08T22:29:02.051Z,2.73
2023-03-08T22:31:30.267Z,4.77
2023-03-08T22:33:57.982Z,2.40
2023-03-08T22:36:25.532Z,5.07
2023-03-08T22:38:52.713Z,4.30
2023-03-08T22:41:22.427Z,4.53
2023-03-08T22:43:50.057Z,3.83
2023-03-08T22:46:22.062Z,4.17
2023-03-08T22:48:49.557Z,3.83
2023-03-08T22:51:17.368Z,3.63
2023-03-08T22:53:44.560Z,4.63
2023-03-08T22:56:18.120Z,3.73
2023-03-08T22:58:45.285Z,5.07
2023-03-08T23:01:13.368Z,3.47
2023-03-08T23:03:40.489Z,3.37
2023-03-08T23:06:07.741Z,5.37
2023-03-08T23:08:34.950Z,5.13
2023-03-08T23:11:02.122Z,4.67
2023-03-08T23:13:34.143Z,4.93
2023-03-08T23:16:01.801Z,4.30
2023-03-08T23:18:29.266Z,4.33
2023-03-08T23:20:56.454Z,5.17
2023-03-08T23:23:25.124Z,4.70
2023-03-08T23:25:52.538Z,6.63
2023-03-08T23:28:20.488Z,6.43
2023-03-08T23:30:47.907Z,6.93
2023-03-08T23:33:15.039Z,10.40
2023-03-08T23:35:42.220Z,8.43
2023-03-08T23:38:09.345Z,9.67
2023-03-08T23:40:39.858Z,8.13
2023-03-08T23:43:07.370Z,9.90
2023-03-08T23:45:34.487Z,9.83
2023-03-08T23:48:03.383Z,10.47
2023-03-08T23:50:30.889Z,8.57
2023-03-08T23:52:58.022Z,10.47
2023-03-08T23:55:25.159Z,12.00
2023-03-08T23:57:52.269Z,13.33
